sensor_id;sensor_type;location;lat;lon;timestamp;P1;P2;P0
76049;PMS7003;64967;50.234;19.224;2023-07-29T00:01:55;2.33;2.00;2.00
76049;PMS7003;64967;50.234;19.224;2023-07-29T00:04:26;4.00;3.00;3.00
76049;PMS7003;64967;50.234;19.224;2023-07-29T00:07:19;1.00;1.00;1.00
76049;PMS7003;64967;50.234;19.224;2023-07-29T00:10:08;1.00;1.00;0.67
76049;PMS7003;64967;50.234;19.224;2023-07-29T00:12:54;1.00;1.00;1.00
76049;PMS7003;64967;50.234;19.224;2023-07-29T00:15:39;1.00;1.00;1.00
76049;PMS7003;64967;50.234;19.224;2023-07-29T00:18:22;0.33;0.33;0.33
76049;PMS7003;64967;50.234;19.224;2023-07-29T00:20:50;0.00;0.00;0.00
76049;PMS7003;64967;50.234;19.224;2023-07-29T00:23:17;0.00;0.00;0.00
76049;PMS7003;64967;50.234;19.224;2023-07-29T00:25:48;0.33;0.33;0.00
76049;PMS7003;64967;50.234;19.224;2023-07-29T00:28:15;1.00;1.00;0.00
76049;PMS7003;64967;50.234;19.224;2023-07-29T00:30:43;0.00;0.00;0.00
76049;PMS7003;64967;50.234;19.224;2023-07-29T00:33:10;0.00;0.00;0.00
76049;PMS7003;64967;50.234;19.224;2023-07-29T00:35:37;0.00;0.00;0.00
76049;PMS7003;64967;50.234;19.224;2023-07-29T00:38:04;0.33;0.33;0.00
76049;PMS7003;64967;50.234;19.224;2023-07-29T00:40:31;0.00;0.00;0.00
76049;PMS7003;64967;50.234;19.224;2023-07-29T00:43:02;0.00;0.00;0.00
76049;PMS7003;64967;50.234;19.224;2023-07-29T00:45:30;0.67;0.67;0.67
76049;PMS7003;64967;50.234;19.224;2023-07-29T00:47:59;1.00;1.00;1.00
76049;PMS7003;64967;50.234;19.224;2023-07-29T00:50:27;1.00;1.00;1.00
76049;PMS7003;64967;50.234;19.224;2023-07-29T00:52:57;0.00;0.00;0.00
76049;PMS7003;64967;50.234;19.224;2023-07-29T00:55:24;1.00;1.00;1.00
76049;PMS7003;64967;50.234;19.224;2023-07-29T00:57:51;1.00;1.00;1.00
76049;PMS7003;64967;50.234;19.224;2023-07-29T01:00:21;1.00;1.00;1.00
76049;PMS7003;64967;50.234;19.224;2023-07-29T01:02:49;1.00;1.00;1.00
76049;PMS7003;64967;50.234;19.224;2023-07-29T01:05:16;2.00;1.00;1.00
76049;PMS7003;64967;50.234;19.224;2023-07-29T01:14:02;1.33;1.00;1.00
76049;PMS7003;64967;50.234;19.224;2023-07-29T01:17:00;0.00;0.00;0.00
76049;PMS7003;64967;50.234;19.224;2023-07-29T01:20:13;1.00;1.00;1.00
76049;PMS7003;64967;50.234;19.224;2023-07-29T01:23:03;0.00;0.00;0.00
76049;PMS7003;64967;50.234;19.224;2023-07-29T01:25:30;1.00;1.00;0.00
76049;PMS7003;64967;50.234;19.224;2023-07-29T01:27:57;1.33;1.33;1.00
76049;PMS7003;64967;50.234;19.224;2023-07-29T01:30:33;2.00;1.00;1.00
76049;PMS7003;64967;50.234;19.224;2023-07-29T01:33:12;1.00;1.00;1.00
76049;PMS7003;64967;50.234;19.224;2023-07-29T01:35:47;3.67;3.00;2.00
76049;PMS7003;64967;50.234;19.224;2023-07-29T01:38:20;3.67;3.00;2.00
76049;PMS7003;64967;50.234;19.224;2023-07-29T01:40:51;2.00;2.00;1.33
76049;PMS7003;64967;50.234;19.224;2023-07-29T01:43:20;2.00;2.00;1.67
76049;PMS7003;64967;50.234;19.224;2023-07-29T01:45:50;2.00;2.00;2.00
76049;PMS7003;64967;50.234;19.224;2023-07-29T01:48:17;2.00;2.00;1.67
76049;PMS7003;64967;50.234;19.224;2023-07-29T01:50:44;6.00;4.00;4.00
76049;PMS7003;64967;50.234;19.224;2023-07-29T01:53:11;1.00;1.00;1.00
76049;PMS7003;64967;50.234;19.224;2023-07-29T01:55:39;2.00;2.00;1.67
76049;PMS7003;64967;50.234;19.224;2023-07-29T01:58:06;2.00;2.00;2.00
76049;PMS7003;64967;50.234;19.224;2023-07-29T02:00:33;4.00;3.67;3.00
76049;PMS7003;64967;50.234;19.224;2023-07-29T02:03:00;2.00;2.00;2.00
76049;PMS7003;64967;50.234;19.224;2023-07-29T02:05:28;1.33;1.33;1.00
76049;PMS7003;64967;50.234;19.224;2023-07-29T02:07:55;4.33;3.33;3.00
76049;PMS7003;64967;50.234;19.224;2023-07-29T02:10:22;1.67;1.67;1.33
76049;PMS7003;64967;50.234;19.224;2023-07-29T02:12:49;2.67;2.00;1.33
76049;PMS7003;64967;50.234;19.224;2023-07-29T02:15:16;2.00;1.33;0.67
76049;PMS7003;64967;50.234;19.224;2023-07-29T02:17:43;2.00;2.00;2.00
76049;PMS7003;64967;50.234;19.224;2023-07-29T02:20:11;3.33;3.33;3.00
76049;PMS7003;64967;50.234;19.224;2023-07-29T02:22:38;1.33;1.00;1.00
76049;PMS7003;64967;50.234;19.224;2023-07-29T02:25:05;2.00;2.00;1.00
76049;PMS7003;64967;50.234;19.224;2023-07-29T02:27:32;2.00;2.00;1.33
76049;PMS7003;64967;50.234;19.224;2023-07-29T02:30:00;2.00;2.00;2.00
76049;PMS7003;64967;50.234;19.224;2023-07-29T02:32:27;1.00;1.00;0.33
76049;PMS7003;64967;50.234;19.224;2023-07-29T02:34:55;3.33;2.33;2.00
76049;PMS7003;64967;50.234;19.224;2023-07-29T02:37:22;1.00;1.00;0.00
76049;PMS7003;64967;50.234;19.224;2023-07-29T02:39:49;1.00;1.00;0.00
76049;PMS7003;64967;50.234;19.224;2023-07-29T02:42:19;1.00;1.00;1.00
76049;PMS7003;64967;50.234;19.224;2023-07-29T02:44:46;4.00;3.00;3.00
76049;PMS7003;64967;50.234;19.224;2023-07-29T02:47:13;1.33;1.00;1.00
76049;PMS7003;64967;50.234;19.224;2023-07-29T02:49:40;1.67;1.00;1.00
76049;PMS7003;64967;50.234;19.224;2023-07-29T02:52:07;2.00;1.00;1.00
76049;PMS7003;64967;50.234;19.224;2023-07-29T02:54:35;0.00;0.00;0.00
76049;PMS7003;64967;50.234;19.224;2023-07-29T02:57:02;1.00;1.00;1.00
76049;PMS7003;64967;50.234;19.224;2023-07-29T02:59:29;3.67;1.00;1.00
76049;PMS7003;64967;50.234;19.224;2023-07-29T03:01:57;3.00;3.00;2.33
76049;PMS7003;64967;50.234;19.224;2023-07-29T03:04:24;1.00;1.00;1.00
76049;PMS7003;64967;50.234;19.224;2023-07-29T03:06:51;2.00;2.00;2.00
76049;PMS7003;64967;50.234;19.224;2023-07-29T03:09:18;1.67;1.67;1.33
76049;PMS7003;64967;50.234;19.224;2023-07-29T03:11:45;2.33;2.33;2.00
76049;PMS7003;64967;50.234;19.224;2023-07-29T03:14:12;1.67;1.67;1.00
76049;PMS7003;64967;50.234;19.224;2023-07-29T03:16:40;1.00;1.00;0.33
76049;PMS7003;64967;50.234;19.224;2023-07-29T03:19:07;2.00;1.00;1.00
76049;PMS7003;64967;50.234;19.224;2023-07-29T03:21:34;1.00;1.00;1.00
76049;PMS7003;64967;50.234;19.224;2023-07-29T03:24:01;1.00;1.00;1.00
76049;PMS7003;64967;50.234;19.224;2023-07-29T03:26:28;1.00;1.00;1.00
76049;PMS7003;64967;50.234;19.224;2023-07-29T03:28:56;1.00;1.00;1.00
76049;PMS7003;64967;50.234;19.224;2023-07-29T03:31:23;1.00;1.00;1.00
76049;PMS7003;64967;50.234;19.224;2023-07-29T03:33:50;1.33;1.00;1.00
76049;PMS7003;64967;50.234;19.224;2023-07-29T03:36:17;1.33;1.33;1.33
76049;PMS7003;64967;50.234;19.224;2023-07-29T03:38:46;2.00;2.00;2.00
76049;PMS7003;64967;50.234;19.224;2023-07-29T03:41:13;2.00;1.00;1.00
76049;PMS7003;64967;50.234;19.224;2023-07-29T03:43:42;0.33;0.33;0.33
76049;PMS7003;64967;50.234;19.224;2023-07-29T03:46:09;1.00;1.00;1.00
76049;PMS7003;64967;50.234;19.224;2023-07-29T03:48:38;1.33;1.00;1.00
76049;PMS7003;64967;50.234;19.224;2023-07-29T03:51:05;1.67;1.67;1.00
76049;PMS7003;64967;50.234;19.224;2023-07-29T03:53:32;0.00;0.00;0.00
76049;PMS7003;64967;50.234;19.224;2023-07-29T03:55:59;1.00;1.00;1.00
76049;PMS7003;64967;50.234;19.224;2023-07-29T03:58:26;1.00;1.00;1.00
76049;PMS7003;64967;50.234;19.224;2023-07-29T04:00:53;4.00;3.00;2.67
76049;PMS7003;64967;50.234;19.224;2023-07-29T04:03:21;7.00;7.00;6.00
76049;PMS7003;64967;50.234;19.224;2023-07-29T04:05:48;7.67;7.00;6.00
76049;PMS7003;64967;50.234;19.224;2023-07-29T04:08:15;5.33;5.00;4.33
76049;PMS7003;64967;50.234;19.224;2023-07-29T04:10:42;5.33;5.00;4.00
76049;PMS7003;64967;50.234;19.224;2023-07-29T04:13:09;2.33;2.33;2.00
76049;PMS7003;64967;50.234;19.224;2023-07-29T04:15:37;3.33;3.00;2.00
76049;PMS7003;64967;50.234;19.224;2023-07-29T04:18:04;2.00;2.00;2.00
76049;PMS7003;64967;50.234;19.224;2023-07-29T04:20:31;3.00;3.00;2.00
76049;PMS7003;64967;50.234;19.224;2023-07-29T04:22:59;2.00;2.00;1.67
76049;PMS7003;64967;50.234;19.224;2023-07-29T04:25:26;2.00;2.00;1.67
76049;PMS7003;64967;50.234;19.224;2023-07-29T04:27:54;2.00;2.00;1.67
76049;PMS7003;64967;50.234;19.224;2023-07-29T04:30:21;1.00;1.00;1.00
76049;PMS7003;64967;50.234;19.224;2023-07-29T04:32:49;1.00;1.00;1.00
76049;PMS7003;64967;50.234;19.224;2023-07-29T04:35:16;0.00;0.00;0.00
76049;PMS7003;64967;50.234;19.224;2023-07-29T04:37:44;1.00;1.00;1.00
76049;PMS7003;64967;50.234;19.224;2023-07-29T04:40:11;1.67;0.67;0.67
76049;PMS7003;64967;50.234;19.224;2023-07-29T04:42:38;1.00;1.00;0.33
76049;PMS7003;64967;50.234;19.224;2023-07-29T04:45:05;2.00;2.00;2.00
76049;PMS7003;64967;50.234;19.224;2023-07-29T04:47:33;2.00;2.00;2.00
76049;PMS7003;64967;50.234;19.224;2023-07-29T04:50:00;1.00;1.00;1.00
76049;PMS7003;64967;50.234;19.224;2023-07-29T04:52:27;1.00;1.00;1.00
76049;PMS7003;64967;50.234;19.224;2023-07-29T04:54:54;1.33;1.33;1.00
76049;PMS7003;64967;50.234;19.224;2023-07-29T04:57:21;1.00;1.00;1.00
76049;PMS7003;64967;50.234;19.224;2023-07-29T04:59:48;1.67;1.67;1.00
76049;PMS7003;64967;50.234;19.224;2023-07-29T05:02:16;2.00;2.00;2.00
76049;PMS7003;64967;50.234;19.224;2023-07-29T05:04:43;4.33;4.00;4.00
76049;PMS7003;64967;50.234;19.224;2023-07-29T05:07:10;9.00;6.67;5.67
76049;PMS7003;64967;50.234;19.224;2023-07-29T05:09:37;3.00;3.00;2.67
76049;PMS7003;64967;50.234;19.224;2023-07-29T05:12:04;1.67;1.00;1.00
76049;PMS7003;64967;50.234;19.224;2023-07-29T05:14:32;4.00;3.67;3.00
76049;PMS7003;64967;50.234;19.224;2023-07-29T05:16:59;3.00;3.00;2.33
76049;PMS7003;64967;50.234;19.224;2023-07-29T05:19:27;3.00;3.00;2.00
76049;PMS7003;64967;50.234;19.224;2023-07-29T05:21:55;3.33;3.33;3.00
76049;PMS7003;64967;50.234;19.224;2023-07-29T05:24:23;1.67;1.67;1.67
76049;PMS7003;64967;50.234;19.224;2023-07-29T05:26:51;3.67;3.67;3.67
76049;PMS7003;64967;50.234;19.224;2023-07-29T05:29:18;5.00;3.00;3.00
76049;PMS7003;64967;50.234;19.224;2023-07-29T05:31:45;4.67;4.67;3.67
76049;PMS7003;64967;50.234;19.224;2023-07-29T05:34:12;2.00;2.00;2.00
76049;PMS7003;64967;50.234;19.224;2023-07-29T05:36:39;7.00;5.00;4.67
76049;PMS7003;64967;50.234;19.224;2023-07-29T05:39:07;4.00;4.00;3.00
76049;PMS7003;64967;50.234;19.224;2023-07-29T05:41:34;4.00;4.00;4.00
76049;PMS7003;64967;50.234;19.224;2023-07-29T05:44:01;4.67;4.67;4.67
76049;PMS7003;64967;50.234;19.224;2023-07-29T05:46:28;6.67;6.67;4.67
76049;PMS7003;64967;50.234;19.224;2023-07-29T05:48:55;5.00;5.00;5.00
76049;PMS7003;64967;50.234;19.224;2023-07-29T05:51:22;3.33;2.67;2.00
76049;PMS7003;64967;50.234;19.224;2023-07-29T05:53:49;3.00;3.00;2.67
76049;PMS7003;64967;50.234;19.224;2023-07-29T05:56:16;4.00;3.67;3.00
76049;PMS7003;64967;50.234;19.224;2023-07-29T05:58:43;3.00;3.00;2.00
76049;PMS7003;64967;50.234;19.224;2023-07-29T06:01:11;2.00;2.00;2.00
76049;PMS7003;64967;50.234;19.224;2023-07-29T06:03:38;1.33;1.00;1.00
76049;PMS7003;64967;50.234;19.224;2023-07-29T06:06:06;2.00;2.00;1.00
76049;PMS7003;64967;50.234;19.224;2023-07-29T06:08:33;1.67;1.67;1.33
76049;PMS7003;64967;50.234;19.224;2023-07-29T06:11:01;2.67;2.67;2.67
76049;PMS7003;64967;50.234;19.224;2023-07-29T06:13:28;4.00;4.00;3.00
76049;PMS7003;64967;50.234;19.224;2023-07-29T06:15:55;3.33;3.33;3.00
76049;PMS7003;64967;50.234;19.224;2023-07-29T06:18:22;0.00;0.00;0.00
76049;PMS7003;64967;50.234;19.224;2023-07-29T06:20:49;3.00;3.00;2.33
76049;PMS7003;64967;50.234;19.224;2023-07-29T06:23:17;7.00;5.67;4.00
76049;PMS7003;64967;50.234;19.224;2023-07-29T06:25:44;5.00;4.33;4.00
76049;PMS7003;64967;50.234;19.224;2023-07-29T06:28:11;4.00;4.00;3.00
76049;PMS7003;64967;50.234;19.224;2023-07-29T06:30:38;5.00;5.00;5.00
76049;PMS7003;64967;50.234;19.224;2023-07-29T06:33:05;7.00;5.00;4.00
76049;PMS7003;64967;50.234;19.224;2023-07-29T06:35:32;3.00;3.00;3.00
76049;PMS7003;64967;50.234;19.224;2023-07-29T06:37:59;3.00;3.00;2.33
76049;PMS7003;64967;50.234;19.224;2023-07-29T06:40:27;2.00;2.00;2.00
76049;PMS7003;64967;50.234;19.224;2023-07-29T06:42:54;2.00;2.00;2.00
76049;PMS7003;64967;50.234;19.224;2023-07-29T06:45:21;4.00;3.67;3.00
76049;PMS7003;64967;50.234;19.224;2023-07-29T06:47:48;2.00;2.00;2.00
76049;PMS7003;64967;50.234;19.224;2023-07-29T06:50:15;4.00;3.33;2.00
76049;PMS7003;64967;50.234;19.224;2023-07-29T06:52:42;1.00;1.00;1.00
76049;PMS7003;64967;50.234;19.224;2023-07-29T06:55:09;2.33;2.00;1.67
76049;PMS7003;64967;50.234;19.224;2023-07-29T06:57:36;3.00;2.00;1.67
76049;PMS7003;64967;50.234;19.224;2023-07-29T07:00:03;2.00;2.00;1.33
76049;PMS7003;64967;50.234;19.224;2023-07-29T07:02:31;2.33;2.00;1.00
76049;PMS7003;64967;50.234;19.224;2023-07-29T07:04:59;2.33;2.33;2.00
76049;PMS7003;64967;50.234;19.224;2023-07-29T07:07:26;2.00;2.00;2.00
76049;PMS7003;64967;50.234;19.224;2023-07-29T07:09:53;2.00;2.00;2.00
76049;PMS7003;64967;50.234;19.224;2023-07-29T07:12:20;2.00;2.00;2.00
76049;PMS7003;64967;50.234;19.224;2023-07-29T07:14:47;2.00;2.00;2.00
76049;PMS7003;64967;50.234;19.224;2023-07-29T07:17:14;2.00;2.00;1.00
76049;PMS7003;64967;50.234;19.224;2023-07-29T07:19:42;1.00;1.00;1.00
76049;PMS7003;64967;50.234;19.224;2023-07-29T07:22:09;1.00;1.00;1.00
76049;PMS7003;64967;50.234;19.224;2023-07-29T07:24:36;2.33;2.00;1.33
76049;PMS7003;64967;50.234;19.224;2023-07-29T07:27:03;1.67;1.00;1.00
76049;PMS7003;64967;50.234;19.224;2023-07-29T07:29:30;2.00;2.00;1.00
76049;PMS7003;64967;50.234;19.224;2023-07-29T07:31:58;1.00;1.00;1.00
76049;PMS7003;64967;50.234;19.224;2023-07-29T07:34:25;1.00;1.00;0.67
76049;PMS7003;64967;50.234;19.224;2023-07-29T07:36:53;0.33;0.33;0.33
76049;PMS7003;64967;50.234;19.224;2023-07-29T07:39:20;1.00;1.00;0.67
76049;PMS7003;64967;50.234;19.224;2023-07-29T07:41:47;3.00;1.00;1.00
76049;PMS7003;64967;50.234;19.224;2023-07-29T07:44:14;1.00;1.00;1.00
76049;PMS7003;64967;50.234;19.224;2023-07-29T07:46:44;1.00;1.00;1.00
76049;PMS7003;64967;50.234;19.224;2023-07-29T07:49:12;1.00;1.00;0.33
76049;PMS7003;64967;50.234;19.224;2023-07-29T07:51:39;1.00;1.00;1.00
76049;PMS7003;64967;50.234;19.224;2023-07-29T07:54:06;2.00;2.00;2.00
76049;PMS7003;64967;50.234;19.224;2023-07-29T07:56:34;4.33;4.00;3.33
76049;PMS7003;64967;50.234;19.224;2023-07-29T07:59:01;1.33;1.33;1.00
76049;PMS7003;64967;50.234;19.224;2023-07-29T08:01:33;1.33;1.33;1.33
76049;PMS7003;64967;50.234;19.224;2023-07-29T08:04:04;1.33;1.33;1.33
76049;PMS7003;64967;50.234;19.224;2023-07-29T08:06:32;2.00;2.00;2.00
76049;PMS7003;64967;50.234;19.224;2023-07-29T08:09:00;1.00;1.00;1.00
76049;PMS7003;64967;50.234;19.224;2023-07-29T08:11:27;1.00;1.00;1.00
76049;PMS7003;64967;50.234;19.224;2023-07-29T08:13:54;2.00;2.00;1.33
76049;PMS7003;64967;50.234;19.224;2023-07-29T08:16:21;0.67;0.00;0.00
76049;PMS7003;64967;50.234;19.224;2023-07-29T08:18:48;1.00;1.00;1.00
76049;PMS7003;64967;50.234;19.224;2023-07-29T08:21:15;0.00;0.00;0.00
76049;PMS7003;64967;50.234;19.224;2023-07-29T08:23:42;0.00;0.00;0.00
76049;PMS7003;64967;50.234;19.224;2023-07-29T08:26:09;2.00;2.00;1.00
76049;PMS7003;64967;50.234;19.224;2023-07-29T08:28:40;2.00;2.00;2.00
76049;PMS7003;64967;50.234;19.224;2023-07-29T08:31:07;1.00;1.00;1.00
76049;PMS7003;64967;50.234;19.224;2023-07-29T08:33:34;1.00;1.00;1.00
76049;PMS7003;64967;50.234;19.224;2023-07-29T08:36:02;0.67;0.33;0.33
76049;PMS7003;64967;50.234;19.224;2023-07-29T08:38:29;1.00;1.00;1.00
76049;PMS7003;64967;50.234;19.224;2023-07-29T08:43:32;0.00;0.00;0.00
76049;PMS7003;64967;50.234;19.224;2023-07-29T08:46:01;1.00;1.00;1.00
76049;PMS7003;64967;50.234;19.224;2023-07-29T08:48:32;1.00;1.00;1.00
76049;PMS7003;64967;50.234;19.224;2023-07-29T08:51:04;0.00;0.00;0.00
76049;PMS7003;64967;50.234;19.224;2023-07-29T08:53:34;1.00;1.00;1.00
76049;PMS7003;64967;50.234;19.224;2023-07-29T08:56:02;0.00;0.00;0.00
76049;PMS7003;64967;50.234;19.224;2023-07-29T08:58:30;1.00;1.00;1.00
76049;PMS7003;64967;50.234;19.224;2023-07-29T09:00:58;1.00;1.00;1.00
76049;PMS7003;64967;50.234;19.224;2023-07-29T09:03:25;0.00;0.00;0.00
76049;PMS7003;64967;50.234;19.224;2023-07-29T09:05:53;0.25;0.25;0.00
76049;PMS7003;64967;50.234;19.224;2023-07-29T09:08:22;0.25;0.25;0.25
76049;PMS7003;64967;50.234;19.224;2023-07-29T09:10:52;1.00;1.00;0.00
76049;PMS7003;64967;50.234;19.224;2023-07-29T09:13:20;1.67;1.67;1.00
76049;PMS7003;64967;50.234;19.224;2023-07-29T09:15:48;1.00;1.00;0.67
76049;PMS7003;64967;50.234;19.224;2023-07-29T09:18:16;1.00;1.00;1.00
76049;PMS7003;64967;50.234;19.224;2023-07-29T09:20:46;2.00;2.00;1.67
76049;PMS7003;64967;50.234;19.224;2023-07-29T09:23:14;1.00;1.00;1.00
76049;PMS7003;64967;50.234;19.224;2023-07-29T09:25:42;1.00;1.00;1.00
76049;PMS7003;64967;50.234;19.224;2023-07-29T09:28:10;2.00;1.00;1.00
76049;PMS7003;64967;50.234;19.224;2023-07-29T09:30:42;1.00;1.00;1.00
76049;PMS7003;64967;50.234;19.224;2023-07-29T09:33:12;0.33;0.33;0.33
76049;PMS7003;64967;50.234;19.224;2023-07-29T09:35:40;1.00;1.00;1.00
76049;PMS7003;64967;50.234;19.224;2023-07-29T09:38:07;1.00;1.00;1.00
76049;PMS7003;64967;50.234;19.224;2023-07-29T09:40:35;2.00;2.00;1.00
76049;PMS7003;64967;50.234;19.224;2023-07-29T09:43:04;1.00;1.00;1.00
76049;PMS7003;64967;50.234;19.224;2023-07-29T09:45:33;1.25;1.00;1.00
76049;PMS7003;64967;50.234;19.224;2023-07-29T09:48:02;1.00;1.00;0.75
76049;PMS7003;64967;50.234;19.224;2023-07-29T09:50:31;0.00;0.00;0.00
76049;PMS7003;64967;50.234;19.224;2023-07-29T09:52:58;1.67;1.00;1.00
76049;PMS7003;64967;50.234;19.224;2023-07-29T09:55:26;1.33;1.33;1.00
76049;PMS7003;64967;50.234;19.224;2023-07-29T09:57:56;1.00;1.00;1.00
76049;PMS7003;64967;50.234;19.224;2023-07-29T10:00:24;2.00;2.00;2.00
76049;PMS7003;64967;50.234;19.224;2023-07-29T10:02:52;2.67;2.67;2.33
76049;PMS7003;64967;50.234;19.224;2023-07-29T10:05:20;1.33;1.33;1.33
76049;PMS7003;64967;50.234;19.224;2023-07-29T10:07:49;2.00;2.00;1.00
76049;PMS7003;64967;50.234;19.224;2023-07-29T10:10:17;3.00;2.00;2.00
76049;PMS7003;64967;50.234;19.224;2023-07-29T10:12:44;2.00;1.00;1.00
76049;PMS7003;64967;50.234;19.224;2023-07-29T10:15:12;0.00;0.00;0.00
76049;PMS7003;64967;50.234;19.224;2023-07-29T10:17:40;2.00;1.00;1.00
76049;PMS7003;64967;50.234;19.224;2023-07-29T10:20:08;1.33;1.33;1.00
76049;PMS7003;64967;50.234;19.224;2023-07-29T10:22:41;1.00;1.00;1.00
76049;PMS7003;64967;50.234;19.224;2023-07-29T10:27:49;0.33;0.33;0.00
76049;PMS7003;64967;50.234;19.224;2023-07-29T10:30:31;1.00;1.00;1.00
76049;PMS7003;64967;50.234;19.224;2023-07-29T10:33:01;1.00;1.00;1.00
76049;PMS7003;64967;50.234;19.224;2023-07-29T10:35:30;1.00;1.00;1.00
76049;PMS7003;64967;50.234;19.224;2023-07-29T10:38:00;1.00;1.00;1.00
76049;PMS7003;64967;50.234;19.224;2023-07-29T10:40:45;1.25;1.25;1.00
76049;PMS7003;64967;50.234;19.224;2023-07-29T10:43:18;0.00;0.00;0.00
76049;PMS7003;64967;50.234;19.224;2023-07-29T10:45:54;1.00;1.00;1.00
76049;PMS7003;64967;50.234;19.224;2023-07-29T10:48:41;1.00;1.00;1.00
76049;PMS7003;64967;50.234;19.224;2023-07-29T10:51:22;1.00;1.00;0.67
76049;PMS7003;64967;50.234;19.224;2023-07-29T10:53:56;1.00;1.00;1.00
76049;PMS7003;64967;50.234;19.224;2023-07-29T10:56:34;1.00;1.00;0.00
76049;PMS7003;64967;50.234;19.224;2023-07-29T11:01:40;2.00;2.00;2.00
76049;PMS7003;64967;50.234;19.224;2023-07-29T11:09:51;2.00;2.00;1.75
76049;PMS7003;64967;50.234;19.224;2023-07-29T11:17:37;1.00;1.00;1.00
76049;PMS7003;64967;50.234;19.224;2023-07-29T11:20:06;2.00;2.00;2.00
76049;PMS7003;64967;50.234;19.224;2023-07-29T11:22:34;1.00;0.50;0.50
76049;PMS7003;64967;50.234;19.224;2023-07-29T11:25:03;1.00;1.00;1.00
76049;PMS7003;64967;50.234;19.224;2023-07-29T11:27:34;1.25;1.25;1.25
76049;PMS7003;64967;50.234;19.224;2023-07-29T11:30:02;2.00;2.00;2.00
76049;PMS7003;64967;50.234;19.224;2023-07-29T11:32:32;3.50;3.00;3.00
76049;PMS7003;64967;50.234;19.224;2023-07-29T11:35:04;3.33;3.00;2.67
76049;PMS7003;64967;50.234;19.224;2023-07-29T11:37:37;2.75;2.75;2.25
76049;PMS7003;64967;50.234;19.224;2023-07-29T11:40:05;3.00;2.50;2.50
76049;PMS7003;64967;50.234;19.224;2023-07-29T11:42:41;1.25;1.25;1.00
76049;PMS7003;64967;50.234;19.224;2023-07-29T11:45:09;2.00;2.00;2.00
76049;PMS7003;64967;50.234;19.224;2023-07-29T11:47:36;1.00;1.00;1.00
76049;PMS7003;64967;50.234;19.224;2023-07-29T11:50:04;1.75;1.75;1.75
76049;PMS7003;64967;50.234;19.224;2023-07-29T11:52:33;1.75;1.75;1.75
76049;PMS7003;64967;50.234;19.224;2023-07-29T11:55:01;3.00;2.25;2.00
76049;PMS7003;64967;50.234;19.224;2023-07-29T11:57:30;0.75;0.75;0.50
76049;PMS7003;64967;50.234;19.224;2023-07-29T12:00:01;3.00;3.00;3.00
76049;PMS7003;64967;50.234;19.224;2023-07-29T12:02:33;2.00;2.00;2.00
76049;PMS7003;64967;50.234;19.224;2023-07-29T12:05:04;3.00;3.00;3.00
76049;PMS7003;64967;50.234;19.224;2023-07-29T12:07:34;2.00;2.00;2.00
76049;PMS7003;64967;50.234;19.224;2023-07-29T12:10:02;3.00;3.00;2.33
76049;PMS7003;64967;50.234;19.224;2023-07-29T12:12:30;2.25;2.00;1.75
76049;PMS7003;64967;50.234;19.224;2023-07-29T12:14:58;2.75;2.00;2.00
76049;PMS7003;64967;50.234;19.224;2023-07-29T12:17:25;2.00;2.00;2.00
76049;PMS7003;64967;50.234;19.224;2023-07-29T12:19:54;1.25;1.25;1.00
76049;PMS7003;64967;50.234;19.224;2023-07-29T12:22:21;1.00;1.00;1.00
76049;PMS7003;64967;50.234;19.224;2023-07-29T12:24:50;2.75;2.75;2.50
76049;PMS7003;64967;50.234;19.224;2023-07-29T12:27:19;3.00;3.00;3.00
76049;PMS7003;64967;50.234;19.224;2023-07-29T12:29:53;2.00;2.00;1.00
76049;PMS7003;64967;50.234;19.224;2023-07-29T12:32:20;2.25;2.25;2.00
76049;PMS7003;64967;50.234;19.224;2023-07-29T12:34:53;3.00;3.00;2.33
76049;PMS7003;64967;50.234;19.224;2023-07-29T12:37:20;2.50;2.50;2.00
76049;PMS7003;64967;50.234;19.224;2023-07-29T12:39:58;2.00;1.75;1.75
76049;PMS7003;64967;50.234;19.224;2023-07-29T12:42:25;2.50;2.00;2.00
76049;PMS7003;64967;50.234;19.224;2023-07-29T12:44:53;3.00;2.00;2.00
76049;PMS7003;64967;50.234;19.224;2023-07-29T12:47:20;2.00;1.00;1.00
76049;PMS7003;64967;50.234;19.224;2023-07-29T12:49:47;1.00;1.00;1.00
76049;PMS7003;64967;50.234;19.224;2023-07-29T12:52:14;2.00;2.00;2.00
76049;PMS7003;64967;50.234;19.224;2023-07-29T12:54:41;1.00;0.75;0.75
76049;PMS7003;64967;50.234;19.224;2023-07-29T12:57:11;1.00;1.00;1.00
76049;PMS7003;64967;50.234;19.224;2023-07-29T12:59:38;1.33;1.33;1.33
76049;PMS7003;64967;50.234;19.224;2023-07-29T13:02:05;1.50;0.75;0.50
76049;PMS7003;64967;50.234;19.224;2023-07-29T13:04:33;2.00;2.00;2.00
76049;PMS7003;64967;50.234;19.224;2023-07-29T13:07:00;1.75;1.75;1.50
76049;PMS7003;64967;50.234;19.224;2023-07-29T13:09:27;1.75;1.75;1.25
76049;PMS7003;64967;50.234;19.224;2023-07-29T13:11:54;1.00;1.00;1.00
76049;PMS7003;64967;50.234;19.224;2023-07-29T13:14:21;2.00;2.00;2.00
76049;PMS7003;64967;50.234;19.224;2023-07-29T13:16:48;2.00;2.00;2.00
76049;PMS7003;64967;50.234;19.224;2023-07-29T13:19:16;2.00;1.75;1.75
76049;PMS7003;64967;50.234;19.224;2023-07-29T13:21:42;2.00;2.00;1.00
76049;PMS7003;64967;50.234;19.224;2023-07-29T13:24:10;2.00;2.00;1.75
76049;PMS7003;64967;50.234;19.224;2023-07-29T13:26:37;1.00;1.00;1.00
76049;PMS7003;64967;50.234;19.224;2023-07-29T13:29:05;1.00;1.00;1.00
76049;PMS7003;64967;50.234;19.224;2023-07-29T13:31:35;1.00;1.00;1.00
76049;PMS7003;64967;50.234;19.224;2023-07-29T13:34:02;2.00;1.00;1.00
76049;PMS7003;64967;50.234;19.224;2023-07-29T13:36:29;2.00;2.00;2.00
76049;PMS7003;64967;50.234;19.224;2023-07-29T13:38:56;2.67;2.00;1.00
76049;PMS7003;64967;50.234;19.224;2023-07-29T13:41:23;2.00;2.00;2.00
76049;PMS7003;64967;50.234;19.224;2023-07-29T13:43:50;2.00;2.00;2.00
76049;PMS7003;64967;50.234;19.224;2023-07-29T13:46:17;3.00;2.00;2.00
76049;PMS7003;64967;50.234;19.224;2023-07-29T13:48:47;1.00;1.00;1.00
76049;PMS7003;64967;50.234;19.224;2023-07-29T13:51:14;1.25;1.25;1.25
76049;PMS7003;64967;50.234;19.224;2023-07-29T13:53:42;1.00;1.00;1.00
76049;PMS7003;64967;50.234;19.224;2023-07-29T13:56:09;1.00;1.00;1.00
76049;PMS7003;64967;50.234;19.224;2023-07-29T13:58:36;1.00;1.00;0.00
76049;PMS7003;64967;50.234;19.224;2023-07-29T14:01:03;0.25;0.00;0.00
76049;PMS7003;64967;50.234;19.224;2023-07-29T14:03:30;1.00;1.00;1.00
76049;PMS7003;64967;50.234;19.224;2023-07-29T14:05:57;1.00;1.00;1.00
76049;PMS7003;64967;50.234;19.224;2023-07-29T14:08:25;1.00;1.00;1.00
76049;PMS7003;64967;50.234;19.224;2023-07-29T14:10:52;0.75;0.25;0.25
76049;PMS7003;64967;50.234;19.224;2023-07-29T14:16:52;1.67;1.67;1.00
76049;PMS7003;64967;50.234;19.224;2023-07-29T14:19:43;1.75;1.75;1.00
76049;PMS7003;64967;50.234;19.224;2023-07-29T14:22:44;0.75;0.75;0.75
76049;PMS7003;64967;50.234;19.224;2023-07-29T14:29:06;1.00;1.00;1.00
76049;PMS7003;64967;50.234;19.224;2023-07-29T14:32:08;2.00;1.75;1.00
76049;PMS7003;64967;50.234;19.224;2023-07-29T14:34:52;2.00;2.00;2.00
76049;PMS7003;64967;50.234;19.224;2023-07-29T14:37:29;3.00;2.00;1.33
76049;PMS7003;64967;50.234;19.224;2023-07-29T14:39:59;2.00;1.50;1.25
76049;PMS7003;64967;50.234;19.224;2023-07-29T14:42:26;0.50;0.50;0.25
76049;PMS7003;64967;50.234;19.224;2023-07-29T14:44:59;2.00;1.00;1.00
76049;PMS7003;64967;50.234;19.224;2023-07-29T14:47:29;0.25;0.25;0.25
76049;PMS7003;64967;50.234;19.224;2023-07-29T14:50:01;0.25;0.25;0.25
76049;PMS7003;64967;50.234;19.224;2023-07-29T14:52:28;1.00;1.00;0.00